URSSUDYZ

Guest
Details From URSS - Sochi
To UDYZ - ZVARTNOTS
Flight Number -
Tags decoded
Created
Modified
Stats Distance 282 nm / 522 km
Max Altitude 0 ft / 0 m
Waypoints 3
Social Downloads 0
Likes 0
Share VATSIM

Download

Looking for another format? Having issues loading an existing format? Contact us
Advertisement - Login to hide

Notes

Requested: URSS TIBLO UDYZ

Route

URSS TIBLO UDYZ

ID Type Via Altitude (ft/m) Position (lat/lon) Dist (leg/tot) Name
O URSS APT - 0 / 0 43.44475 / 39.94730 - / 0 nm Sochi
TIBLO FIX - 0 / 0 40.38556 / 43.89111 254 / 254 nm
O UDYZ APT - 0 / 0 40.14727 / 44.39588 27 / 281 nm ZVARTNOTS

Altitude Profile

Advertisement - Login to hide

Weather


0- 5 10 15 20 25 30 35+ Temperature / °C

Clouds and Precipitation
Forecast for 2018-10-16 12:00 UTC. Updated 17 minutes ago

Ground ~20,000 ft ~40,000 ft Winds

URSS

Details ICAO URSS (AER)
Name Sochi / Adler Intl
Region Russia
Timezone Europe/Moscow (UTC+3.0)
Stats Elevation 83 ft / 25 m (AMSL)
Location 43.444700° 39.947100°
Runways 2
Magnetic Variation 7.038° E

METAR

URSS 160930Z 27004MPS 9999 NSC 23/14 Q1021 R02/090070 R06/090070 NOSIG RMK R06/29004MPS QFE764

Decode

TAF

TAF URSS 160757Z 1609/1709 27004G09MPS 9999 SCT100 BECMG 1615/1617 05006MPS

Decode

Departure Runways

ID Width Length Bearing (true/mag) Surface Threshold Overrun Markings Lighting
02 161 ft / 49 m 8,205 ft / 2,501 m 28.61° / 21.57° CONCRETE 0 ft / 0 m 164 ft / 50 m PREC-APP CENTERLINE EDGE THRESHOLD ALSF-II
06 148 ft / 45 m 9,666 ft / 2,946 m 64.74° / 57.71° CONCRETE 0 ft / 0 m 230 ft / 70 m PREC-APP CENTERLINE EDGE THRESHOLD ALSF-II REIL-OMNI
20 161 ft / 49 m 8,205 ft / 2,501 m 208.62° / 201.58° CONCRETE 0 ft / 0 m 164 ft / 50 m PREC-APP CENTERLINE EDGE THRESHOLD ALSF-II REIL-OMNI
24 148 ft / 45 m 9,666 ft / 2,946 m 244.77° / 237.73° CONCRETE 0 ft / 0 m 0 ft / 0 m PREC-APP CENTERLINE EDGE THRESHOLD ALSF-II REIL-OMNI

UDYZ

Details ICAO UDYZ (EVN)
Name Yerevan Zvartnots Airport
Region Armenia
Timezone Asia/Yerevan (UTC+4.0)
Stats Elevation 2,837 ft / 865 m (AMSL)
Location 40.147300° 44.395900°
Runways 1
Magnetic Variation 6.266° E

METAR

UDYZ 160930Z VRB01KT 9999 NSC 23/01 Q1023 R09/010070 NOSIG

Decode

TAF

Not found

Destination Runways

ID Width Length Bearing (true/mag) Surface Threshold Overrun Markings Lighting
09 184 ft / 56 m 12,590 ft / 3,837 m 89.66° / 83.39° ASPHALT 0 ft / 0 m 0 ft / 0 m PREC-APP CENTERLINE EDGE THRESHOLD ALSF-II TDZ
27 184 ft / 56 m 12,590 ft / 3,837 m 269.69° / 263.42° ASPHALT 0 ft / 0 m 0 ft / 0 m PREC-APP CENTERLINE EDGE THRESHOLD

Approach Navaids

Runway Type Ident Frequency Range Bearing (true/mag) Slope Elevation
09 LOC-ILS IZR 108.10 MHz 18 nm / 33 km 89.83° / 83.57 ° - 2,838 ft / 865 m (AMSL)
09 OM OM - - 89.61° / 83.34 ° - 2,838 ft / 865 m (AMSL)
09 GS IZR 108.10 MHz 10 nm / 19 km 90.22° / 83.95 ° 2.67° 2,838 ft / 865 m (AMSL)
09 MM MM - - 89.61° / 83.34 ° - 2,838 ft / 865 m (AMSL)

Popular Alternatives